sensor_id;sensor_type;location;lat;lon;timestamp;P1;durP1;ratioP1;P2;durP2;ratioP2
19923;SDS011;10124;53.068;18.224;2022-11-15T00:00:22;123.57;;;61.77;;
19923;SDS011;10124;53.068;18.224;2022-11-15T00:03:08;123.10;;;60.37;;
19923;SDS011;10124;53.068;18.224;2022-11-15T00:05:53;133.57;;;63.87;;
19923;SDS011;10124;53.068;18.224;2022-11-15T00:08:40;137.43;;;64.40;;
19923;SDS011;10124;53.068;18.224;2022-11-15T00:11:26;140.00;;;68.37;;
19923;SDS011;10124;53.068;18.224;2022-11-15T00:14:12;137.67;;;64.73;;
19923;SDS011;10124;53.068;18.224;2022-11-15T00:16:58;132.70;;;62.57;;
19923;SDS011;10124;53.068;18.224;2022-11-15T00:19:44;135.67;;;63.93;;
19923;SDS011;10124;53.068;18.224;2022-11-15T00:22:32;137.93;;;68.47;;
19923;SDS011;10124;53.068;18.224;2022-11-15T00:25:19;141.50;;;67.00;;
19923;SDS011;10124;53.068;18.224;2022-11-15T00:28:05;135.13;;;66.43;;
19923;SDS011;10124;53.068;18.224;2022-11-15T00:30:52;146.93;;;70.00;;
19923;SDS011;10124;53.068;18.224;2022-11-15T00:33:38;142.67;;;67.47;;
19923;SDS011;10124;53.068;18.224;2022-11-15T00:36:24;151.67;;;71.87;;
19923;SDS011;10124;53.068;18.224;2022-11-15T00:39:10;147.07;;;69.30;;
19923;SDS011;10124;53.068;18.224;2022-11-15T00:41:56;143.77;;;68.27;;
19923;SDS011;10124;53.068;18.224;2022-11-15T00:44:42;140.13;;;67.57;;
19923;SDS011;10124;53.068;18.224;2022-11-15T00:47:29;145.87;;;68.63;;
19923;SDS011;10124;53.068;18.224;2022-11-15T00:50:15;151.47;;;71.23;;
19923;SDS011;10124;53.068;18.224;2022-11-15T00:56:43;145.40;;;69.30;;
19923;SDS011;10124;53.068;18.224;2022-11-15T00:59:30;148.23;;;70.50;;
19923;SDS011;10124;53.068;18.224;2022-11-15T01:02:17;141.57;;;69.33;;
19923;SDS011;10124;53.068;18.224;2022-11-15T01:05:03;153.67;;;73.27;;
19923;SDS011;10124;53.068;18.224;2022-11-15T01:07:52;169.93;;;77.10;;
19923;SDS011;10124;53.068;18.224;2022-11-15T01:10:39;166.17;;;74.60;;
19923;SDS011;10124;53.068;18.224;2022-11-15T01:13:25;172.43;;;79.43;;
19923;SDS011;10124;53.068;18.224;2022-11-15T01:16:12;160.90;;;74.97;;
19923;SDS011;10124;53.068;18.224;2022-11-15T01:19:00;176.97;;;75.80;;
19923;SDS011;10124;53.068;18.224;2022-11-15T01:21:50;179.27;;;78.77;;
19923;SDS011;10124;53.068;18.224;2022-11-15T01:24:37;167.30;;;74.23;;
19923;SDS011;10124;53.068;18.224;2022-11-15T01:27:23;161.47;;;72.40;;
19923;SDS011;10124;53.068;18.224;2022-11-15T01:30:09;175.37;;;76.97;;
19923;SDS011;10124;53.068;18.224;2022-11-15T01:32:56;179.50;;;79.03;;
19923;SDS011;10124;53.068;18.224;2022-11-15T01:35:42;176.57;;;76.67;;
19923;SDS011;10124;53.068;18.224;2022-11-15T01:38:28;175.67;;;74.13;;
19923;SDS011;10124;53.068;18.224;2022-11-15T01:41:15;169.37;;;75.27;;
19923;SDS011;10124;53.068;18.224;2022-11-15T01:47:24;172.67;;;77.30;;
19923;SDS011;10124;53.068;18.224;2022-11-15T01:50:15;181.60;;;79.27;;
19923;SDS011;10124;53.068;18.224;2022-11-15T01:53:05;184.90;;;79.20;;
19923;SDS011;10124;53.068;18.224;2022-11-15T01:55:52;175.40;;;76.90;;
19923;SDS011;10124;53.068;18.224;2022-11-15T01:58:39;177.50;;;78.57;;
19923;SDS011;10124;53.068;18.224;2022-11-15T02:01:27;170.40;;;75.87;;
19923;SDS011;10124;53.068;18.224;2022-11-15T02:04:16;159.40;;;69.60;;
19923;SDS011;10124;53.068;18.224;2022-11-15T02:07:04;157.53;;;68.83;;
19923;SDS011;10124;53.068;18.224;2022-11-15T02:09:52;181.53;;;73.07;;
19923;SDS011;10124;53.068;18.224;2022-11-15T02:12:40;159.43;;;68.67;;
19923;SDS011;10124;53.068;18.224;2022-11-15T02:15:29;163.63;;;71.30;;
19923;SDS011;10124;53.068;18.224;2022-11-15T02:18:23;150.77;;;64.73;;
19923;SDS011;10124;53.068;18.224;2022-11-15T02:30:27;149.27;;;65.17;;
19923;SDS011;10124;53.068;18.224;2022-11-15T02:36:25;158.47;;;63.33;;
19923;SDS011;10124;53.068;18.224;2022-11-15T02:39:27;161.50;;;66.13;;
19923;SDS011;10124;53.068;18.224;2022-11-15T02:42:19;163.23;;;63.77;;
19923;SDS011;10124;53.068;18.224;2022-11-15T02:45:31;168.90;;;64.57;;
19923;SDS011;10124;53.068;18.224;2022-11-15T02:48:22;159.43;;;64.40;;
19923;SDS011;10124;53.068;18.224;2022-11-15T02:51:11;169.57;;;66.70;;
19923;SDS011;10124;53.068;18.224;2022-11-15T02:53:58;170.73;;;64.13;;
19923;SDS011;10124;53.068;18.224;2022-11-15T02:56:44;175.20;;;68.07;;
19923;SDS011;10124;53.068;18.224;2022-11-15T02:59:38;155.50;;;62.27;;
19923;SDS011;10124;53.068;18.224;2022-11-15T03:05:42;172.70;;;65.43;;
19923;SDS011;10124;53.068;18.224;2022-11-15T03:11:37;178.30;;;66.37;;
19923;SDS011;10124;53.068;18.224;2022-11-15T03:14:29;166.10;;;62.43;;
19923;SDS011;10124;53.068;18.224;2022-11-15T03:17:26;170.60;;;62.23;;
19923;SDS011;10124;53.068;18.224;2022-11-15T03:20:20;159.50;;;64.80;;
19923;SDS011;10124;53.068;18.224;2022-11-15T03:23:08;184.60;;;67.03;;
19923;SDS011;10124;53.068;18.224;2022-11-15T03:25:55;170.50;;;66.77;;
19923;SDS011;10124;53.068;18.224;2022-11-15T03:28:46;187.43;;;68.83;;
19923;SDS011;10124;53.068;18.224;2022-11-15T03:31:36;191.77;;;68.70;;
19923;SDS011;10124;53.068;18.224;2022-11-15T03:34:40;189.47;;;67.47;;
19923;SDS011;10124;53.068;18.224;2022-11-15T03:40:45;182.47;;;69.70;;
19923;SDS011;10124;53.068;18.224;2022-11-15T03:43:41;208.53;;;72.40;;
19923;SDS011;10124;53.068;18.224;2022-11-15T03:46:51;208.83;;;71.30;;
19923;SDS011;10124;53.068;18.224;2022-11-15T03:49:51;201.63;;;71.43;;
19923;SDS011;10124;53.068;18.224;2022-11-15T03:52:41;203.93;;;72.37;;
19923;SDS011;10124;53.068;18.224;2022-11-15T03:55:31;205.40;;;73.33;;
19923;SDS011;10124;53.068;18.224;2022-11-15T03:58:18;178.37;;;68.87;;
19923;SDS011;10124;53.068;18.224;2022-11-15T04:01:04;196.80;;;70.90;;
19923;SDS011;10124;53.068;18.224;2022-11-15T04:03:50;190.20;;;67.73;;
19923;SDS011;10124;53.068;18.224;2022-11-15T04:06:36;176.47;;;65.23;;
19923;SDS011;10124;53.068;18.224;2022-11-15T04:09:22;204.63;;;69.40;;
19923;SDS011;10124;53.068;18.224;2022-11-15T04:12:08;182.23;;;65.87;;
19923;SDS011;10124;53.068;18.224;2022-11-15T04:14:54;167.93;;;63.90;;
19923;SDS011;10124;53.068;18.224;2022-11-15T04:17:53;182.40;;;66.00;;
19923;SDS011;10124;53.068;18.224;2022-11-15T04:20:41;154.17;;;61.83;;
19923;SDS011;10124;53.068;18.224;2022-11-15T04:23:46;153.87;;;59.47;;
19923;SDS011;10124;53.068;18.224;2022-11-15T04:26:52;157.67;;;60.07;;
19923;SDS011;10124;53.068;18.224;2022-11-15T04:29:39;155.83;;;59.67;;
19923;SDS011;10124;53.068;18.224;2022-11-15T04:32:25;156.60;;;61.83;;
19923;SDS011;10124;53.068;18.224;2022-11-15T04:35:11;149.70;;;57.00;;
19923;SDS011;10124;53.068;18.224;2022-11-15T04:37:57;157.50;;;58.53;;
19923;SDS011;10124;53.068;18.224;2022-11-15T04:40:44;154.50;;;59.33;;
19923;SDS011;10124;53.068;18.224;2022-11-15T04:43:30;158.87;;;61.67;;
19923;SDS011;10124;53.068;18.224;2022-11-15T04:46:17;158.03;;;59.77;;
19923;SDS011;10124;53.068;18.224;2022-11-15T04:49:04;163.23;;;61.50;;
19923;SDS011;10124;53.068;18.224;2022-11-15T04:51:49;170.67;;;65.90;;
19923;SDS011;10124;53.068;18.224;2022-11-15T04:54:35;182.87;;;66.30;;
19923;SDS011;10124;53.068;18.224;2022-11-15T04:57:21;165.83;;;62.90;;
19923;SDS011;10124;53.068;18.224;2022-11-15T05:00:08;166.93;;;59.87;;
19923;SDS011;10124;53.068;18.224;2022-11-15T05:02:57;212.17;;;69.60;;
19923;SDS011;10124;53.068;18.224;2022-11-15T05:06:02;180.67;;;65.33;;
19923;SDS011;10124;53.068;18.224;2022-11-15T05:08:48;198.23;;;68.53;;
19923;SDS011;10124;53.068;18.224;2022-11-15T05:11:35;199.97;;;66.77;;
19923;SDS011;10124;53.068;18.224;2022-11-15T05:14:21;180.97;;;63.33;;
19923;SDS011;10124;53.068;18.224;2022-11-15T05:17:07;176.53;;;64.03;;
19923;SDS011;10124;53.068;18.224;2022-11-15T05:19:53;173.67;;;62.37;;
19923;SDS011;10124;53.068;18.224;2022-11-15T05:22:40;202.23;;;70.80;;
19923;SDS011;10124;53.068;18.224;2022-11-15T05:25:26;183.90;;;63.97;;
19923;SDS011;10124;53.068;18.224;2022-11-15T05:28:12;191.93;;;67.70;;
19923;SDS011;10124;53.068;18.224;2022-11-15T05:33:53;187.40;;;65.00;;
19923;SDS011;10124;53.068;18.224;2022-11-15T05:36:43;215.80;;;71.37;;
19923;SDS011;10124;53.068;18.224;2022-11-15T05:39:33;182.47;;;63.43;;
19923;SDS011;10124;53.068;18.224;2022-11-15T05:42:18;207.17;;;71.03;;
19923;SDS011;10124;53.068;18.224;2022-11-15T05:45:05;204.03;;;69.70;;
19923;SDS011;10124;53.068;18.224;2022-11-15T05:47:54;209.17;;;68.67;;
19923;SDS011;10124;53.068;18.224;2022-11-15T05:50:43;184.47;;;63.20;;
19923;SDS011;10124;53.068;18.224;2022-11-15T05:53:31;208.97;;;69.30;;
19923;SDS011;10124;53.068;18.224;2022-11-15T05:56:19;212.53;;;68.23;;
19923;SDS011;10124;53.068;18.224;2022-11-15T05:59:05;213.80;;;71.37;;
19923;SDS011;10124;53.068;18.224;2022-11-15T06:01:53;198.53;;;68.13;;
19923;SDS011;10124;53.068;18.224;2022-11-15T06:04:39;185.47;;;64.60;;
19923;SDS011;10124;53.068;18.224;2022-11-15T06:07:26;191.80;;;64.97;;
19923;SDS011;10124;53.068;18.224;2022-11-15T06:10:14;174.53;;;64.43;;
19923;SDS011;10124;53.068;18.224;2022-11-15T06:13:01;183.33;;;64.47;;
19923;SDS011;10124;53.068;18.224;2022-11-15T06:15:48;191.73;;;65.03;;
19923;SDS011;10124;53.068;18.224;2022-11-15T06:18:35;183.43;;;66.37;;
19923;SDS011;10124;53.068;18.224;2022-11-15T06:21:21;196.60;;;68.43;;
19923;SDS011;10124;53.068;18.224;2022-11-15T06:24:08;190.60;;;66.37;;
19923;SDS011;10124;53.068;18.224;2022-11-15T06:26:54;201.00;;;70.60;;
19923;SDS011;10124;53.068;18.224;2022-11-15T06:29:40;207.60;;;68.87;;
19923;SDS011;10124;53.068;18.224;2022-11-15T06:32:28;197.77;;;67.17;;
19923;SDS011;10124;53.068;18.224;2022-11-15T06:35:15;197.30;;;66.80;;
19923;SDS011;10124;53.068;18.224;2022-11-15T06:38:05;205.43;;;69.77;;
19923;SDS011;10124;53.068;18.224;2022-11-15T06:40:53;188.57;;;65.73;;
19923;SDS011;10124;53.068;18.224;2022-11-15T06:43:39;199.23;;;65.30;;
19923;SDS011;10124;53.068;18.224;2022-11-15T06:46:26;206.37;;;70.40;;
19923;SDS011;10124;53.068;18.224;2022-11-15T06:49:13;195.93;;;67.80;;
19923;SDS011;10124;53.068;18.224;2022-11-15T06:51:59;212.80;;;69.03;;
19923;SDS011;10124;53.068;18.224;2022-11-15T06:54:45;225.47;;;71.77;;
19923;SDS011;10124;53.068;18.224;2022-11-15T06:57:32;180.30;;;63.57;;
19923;SDS011;10124;53.068;18.224;2022-11-15T07:00:18;197.63;;;65.47;;
19923;SDS011;10124;53.068;18.224;2022-11-15T07:03:06;228.00;;;73.17;;
19923;SDS011;10124;53.068;18.224;2022-11-15T07:05:53;201.97;;;76.50;;
19923;SDS011;10124;53.068;18.224;2022-11-15T07:08:40;179.43;;;66.43;;
19923;SDS011;10124;53.068;18.224;2022-11-15T07:11:27;160.73;;;58.13;;
19923;SDS011;10124;53.068;18.224;2022-11-15T07:14:13;146.63;;;56.17;;
19923;SDS011;10124;53.068;18.224;2022-11-15T07:16:58;152.63;;;56.67;;
19923;SDS011;10124;53.068;18.224;2022-11-15T07:19:44;149.70;;;59.83;;
19923;SDS011;10124;53.068;18.224;2022-11-15T07:22:30;161.00;;;60.00;;
19923;SDS011;10124;53.068;18.224;2022-11-15T07:25:16;159.97;;;60.37;;
19923;SDS011;10124;53.068;18.224;2022-11-15T07:28:02;156.10;;;58.07;;
19923;SDS011;10124;53.068;18.224;2022-11-15T07:30:49;156.73;;;57.40;;
19923;SDS011;10124;53.068;18.224;2022-11-15T07:33:34;178.73;;;64.07;;
19923;SDS011;10124;53.068;18.224;2022-11-15T07:36:21;178.50;;;64.57;;
19923;SDS011;10124;53.068;18.224;2022-11-15T07:39:07;164.43;;;61.73;;
19923;SDS011;10124;53.068;18.224;2022-11-15T07:41:53;192.40;;;63.57;;
19923;SDS011;10124;53.068;18.224;2022-11-15T07:44:58;185.37;;;61.90;;
19923;SDS011;10124;53.068;18.224;2022-11-15T07:47:45;169.70;;;64.33;;
19923;SDS011;10124;53.068;18.224;2022-11-15T07:50:32;158.03;;;60.13;;
19923;SDS011;10124;53.068;18.224;2022-11-15T07:53:18;163.03;;;62.00;;
19923;SDS011;10124;53.068;18.224;2022-11-15T07:56:07;155.50;;;58.67;;
19923;SDS011;10124;53.068;18.224;2022-11-15T07:58:53;174.70;;;62.77;;
19923;SDS011;10124;53.068;18.224;2022-11-15T08:01:39;159.63;;;58.53;;
19923;SDS011;10124;53.068;18.224;2022-11-15T08:04:26;166.73;;;61.97;;
19923;SDS011;10124;53.068;18.224;2022-11-15T08:07:12;171.77;;;60.80;;
19923;SDS011;10124;53.068;18.224;2022-11-15T08:09:58;144.50;;;56.07;;
19923;SDS011;10124;53.068;18.224;2022-11-15T08:12:46;152.60;;;57.47;;
19923;SDS011;10124;53.068;18.224;2022-11-15T08:15:33;140.57;;;54.80;;
19923;SDS011;10124;53.068;18.224;2022-11-15T08:18:20;149.17;;;54.97;;
19923;SDS011;10124;53.068;18.224;2022-11-15T08:21:06;140.47;;;53.03;;
19923;SDS011;10124;53.068;18.224;2022-11-15T08:24:01;145.00;;;56.93;;
19923;SDS011;10124;53.068;18.224;2022-11-15T08:26:47;140.30;;;56.27;;
19923;SDS011;10124;53.068;18.224;2022-11-15T08:29:33;132.70;;;52.30;;
19923;SDS011;10124;53.068;18.224;2022-11-15T08:32:19;115.80;;;50.67;;
19923;SDS011;10124;53.068;18.224;2022-11-15T08:35:05;126.40;;;53.20;;
19923;SDS011;10124;53.068;18.224;2022-11-15T08:37:52;110.43;;;47.40;;
19923;SDS011;10124;53.068;18.224;2022-11-15T08:40:38;106.70;;;48.17;;
19923;SDS011;10124;53.068;18.224;2022-11-15T08:43:24;108.40;;;47.17;;
19923;SDS011;10124;53.068;18.224;2022-11-15T08:46:11;108.47;;;46.73;;
19923;SDS011;10124;53.068;18.224;2022-11-15T08:48:59;115.60;;;49.60;;
19923;SDS011;10124;53.068;18.224;2022-11-15T08:51:44;102.40;;;48.90;;
19923;SDS011;10124;53.068;18.224;2022-11-15T08:54:31;110.63;;;46.33;;
19923;SDS011;10124;53.068;18.224;2022-11-15T08:57:17;110.73;;;48.27;;
19923;SDS011;10124;53.068;18.224;2022-11-15T09:00:03;101.90;;;46.53;;
19923;SDS011;10124;53.068;18.224;2022-11-15T09:02:50;103.13;;;45.97;;
19923;SDS011;10124;53.068;18.224;2022-11-15T09:05:36;111.40;;;48.60;;
19923;SDS011;10124;53.068;18.224;2022-11-15T09:08:23;114.40;;;49.23;;
19923;SDS011;10124;53.068;18.224;2022-11-15T09:11:30;113.13;;;47.80;;
19923;SDS011;10124;53.068;18.224;2022-11-15T09:14:16;107.23;;;48.20;;
19923;SDS011;10124;53.068;18.224;2022-11-15T09:17:02;100.80;;;44.93;;
19923;SDS011;10124;53.068;18.224;2022-11-15T09:19:47;109.83;;;46.20;;
19923;SDS011;10124;53.068;18.224;2022-11-15T09:22:34;105.93;;;47.30;;
19923;SDS011;10124;53.068;18.224;2022-11-15T09:25:20;84.77;;;40.80;;
19923;SDS011;10124;53.068;18.224;2022-11-15T09:28:06;92.60;;;42.13;;
19923;SDS011;10124;53.068;18.224;2022-11-15T09:31:00;93.27;;;43.60;;
19923;SDS011;10124;53.068;18.224;2022-11-15T09:33:49;105.83;;;45.57;;
19923;SDS011;10124;53.068;18.224;2022-11-15T09:36:34;110.07;;;45.83;;
19923;SDS011;10124;53.068;18.224;2022-11-15T09:39:21;101.50;;;45.57;;
19923;SDS011;10124;53.068;18.224;2022-11-15T09:51:38;108.20;;;48.03;;
19923;SDS011;10124;53.068;18.224;2022-11-15T09:54:17;119.03;;;49.50;;
19923;SDS011;10124;53.068;18.224;2022-11-15T10:00:16;106.40;;;47.97;;
19923;SDS011;10124;53.068;18.224;2022-11-15T10:03:11;103.03;;;45.43;;
19923;SDS011;10124;53.068;18.224;2022-11-15T10:05:43;93.73;;;43.47;;
19923;SDS011;10124;53.068;18.224;2022-11-15T10:08:17;105.90;;;46.83;;
19923;SDS011;10124;53.068;18.224;2022-11-15T10:10:49;105.87;;;46.43;;
19923;SDS011;10124;53.068;18.224;2022-11-15T10:13:54;111.83;;;46.97;;
19923;SDS011;10124;53.068;18.224;2022-11-15T10:24:25;128.07;;;52.70;;
19923;SDS011;10124;53.068;18.224;2022-11-15T10:26:57;118.10;;;51.90;;
19923;SDS011;10124;53.068;18.224;2022-11-15T10:29:24;115.47;;;53.00;;
19923;SDS011;10124;53.068;18.224;2022-11-15T10:31:53;125.87;;;53.03;;
19923;SDS011;10124;53.068;18.224;2022-11-15T10:34:21;129.67;;;53.53;;
19923;SDS011;10124;53.068;18.224;2022-11-15T10:36:57;129.60;;;53.13;;
19923;SDS011;10124;53.068;18.224;2022-11-15T10:39:26;133.00;;;53.80;;
19923;SDS011;10124;53.068;18.224;2022-11-15T10:41:53;121.70;;;51.60;;
19923;SDS011;10124;53.068;18.224;2022-11-15T10:44:30;126.53;;;54.23;;
19923;SDS011;10124;53.068;18.224;2022-11-15T10:49:27;158.73;;;61.60;;
19923;SDS011;10124;53.068;18.224;2022-11-15T10:54:31;145.87;;;61.67;;
19923;SDS011;10124;53.068;18.224;2022-11-15T10:57:14;154.03;;;63.83;;
19923;SDS011;10124;53.068;18.224;2022-11-15T10:59:45;136.37;;;60.03;;
19923;SDS011;10124;53.068;18.224;2022-11-15T11:04:59;149.77;;;62.77;;
19923;SDS011;10124;53.068;18.224;2022-11-15T11:07:30;144.20;;;60.47;;
19923;SDS011;10124;53.068;18.224;2022-11-15T11:10:17;158.43;;;63.83;;
19923;SDS011;10124;53.068;18.224;2022-11-15T11:13:29;148.83;;;61.53;;
19923;SDS011;10124;53.068;18.224;2022-11-15T11:24:41;128.77;;;54.80;;
19923;SDS011;10124;53.068;18.224;2022-11-15T11:27:43;125.63;;;54.77;;
19923;SDS011;10124;53.068;18.224;2022-11-15T11:30:18;114.33;;;54.10;;
19923;SDS011;10124;53.068;18.224;2022-11-15T11:46:55;109.73;;;51.73;;
19923;SDS011;10124;53.068;18.224;2022-11-15T11:49:44;102.93;;;50.23;;
19923;SDS011;10124;53.068;18.224;2022-11-15T11:52:38;120.90;;;56.17;;
19923;SDS011;10124;53.068;18.224;2022-11-15T11:55:23;117.67;;;53.23;;
19923;SDS011;10124;53.068;18.224;2022-11-15T11:58:05;119.23;;;55.73;;
19923;SDS011;10124;53.068;18.224;2022-11-15T12:01:00;124.07;;;55.77;;
19923;SDS011;10124;53.068;18.224;2022-11-15T12:06:18;134.30;;;58.70;;
19923;SDS011;10124;53.068;18.224;2022-11-15T12:09:14;124.63;;;58.33;;
19923;SDS011;10124;53.068;18.224;2022-11-15T12:11:56;133.43;;;58.47;;
19923;SDS011;10124;53.068;18.224;2022-11-15T12:17:41;141.37;;;61.30;;
19923;SDS011;10124;53.068;18.224;2022-11-15T12:20:24;138.37;;;60.33;;
19923;SDS011;10124;53.068;18.224;2022-11-15T12:22:59;131.83;;;59.43;;
19923;SDS011;10124;53.068;18.224;2022-11-15T12:25:35;132.13;;;58.30;;
19923;SDS011;10124;53.068;18.224;2022-11-15T12:34:03;123.93;;;56.70;;
19923;SDS011;10124;53.068;18.224;2022-11-15T12:36:52;125.60;;;57.37;;
19923;SDS011;10124;53.068;18.224;2022-11-15T12:39:20;123.30;;;56.77;;
19923;SDS011;10124;53.068;18.224;2022-11-15T12:52:05;116.20;;;53.20;;
19923;SDS011;10124;53.068;18.224;2022-11-15T12:59:51;113.23;;;50.20;;
19923;SDS011;10124;53.068;18.224;2022-11-15T13:02:25;108.73;;;49.50;;
19923;SDS011;10124;53.068;18.224;2022-11-15T13:18:26;114.67;;;51.80;;
19923;SDS011;10124;53.068;18.224;2022-11-15T13:21:19;119.20;;;53.20;;
19923;SDS011;10124;53.068;18.224;2022-11-15T13:24:15;110.57;;;52.53;;
19923;SDS011;10124;53.068;18.224;2022-11-15T13:26:46;119.00;;;52.70;;
19923;SDS011;10124;53.068;18.224;2022-11-15T13:29:19;154.27;;;63.63;;
19923;SDS011;10124;53.068;18.224;2022-11-15T13:32:02;143.73;;;63.47;;
19923;SDS011;10124;53.068;18.224;2022-11-15T13:34:33;158.83;;;65.53;;
19923;SDS011;10124;53.068;18.224;2022-11-15T13:39:49;152.33;;;64.13;;
19923;SDS011;10124;53.068;18.224;2022-11-15T13:42:20;153.17;;;61.70;;
19923;SDS011;10124;53.068;18.224;2022-11-15T13:44:57;158.00;;;64.47;;
19923;SDS011;10124;53.068;18.224;2022-11-15T13:47:29;147.17;;;62.27;;
19923;SDS011;10124;53.068;18.224;2022-11-15T13:49:59;146.67;;;62.57;;
19923;SDS011;10124;53.068;18.224;2022-11-15T13:52:30;162.60;;;64.13;;
19923;SDS011;10124;53.068;18.224;2022-11-15T13:55:01;141.03;;;60.97;;
19923;SDS011;10124;53.068;18.224;2022-11-15T13:57:38;150.17;;;61.03;;
19923;SDS011;10124;53.068;18.224;2022-11-15T14:02:55;123.77;;;55.53;;
19923;SDS011;10124;53.068;18.224;2022-11-15T14:05:32;137.80;;;58.47;;
19923;SDS011;10124;53.068;18.224;2022-11-15T14:08:03;126.43;;;54.30;;
19923;SDS011;10124;53.068;18.224;2022-11-15T14:10:47;141.50;;;58.40;;
19923;SDS011;10124;53.068;18.224;2022-11-15T14:13:28;151.47;;;58.53;;
19923;SDS011;10124;53.068;18.224;2022-11-15T14:16:20;148.30;;;56.47;;
19923;SDS011;10124;53.068;18.224;2022-11-15T14:18:50;141.03;;;54.77;;
19923;SDS011;10124;53.068;18.224;2022-11-15T14:21:19;143.73;;;55.83;;
19923;SDS011;10124;53.068;18.224;2022-11-15T14:23:47;155.10;;;59.93;;
19923;SDS011;10124;53.068;18.224;2022-11-15T14:26:29;133.10;;;54.57;;
19923;SDS011;10124;53.068;18.224;2022-11-15T14:31:51;142.87;;;54.47;;
19923;SDS011;10124;53.068;18.224;2022-11-15T14:34:19;133.03;;;51.57;;
19923;SDS011;10124;53.068;18.224;2022-11-15T14:36:49;131.07;;;52.10;;
19923;SDS011;10124;53.068;18.224;2022-11-15T14:39:16;116.27;;;49.40;;
19923;SDS011;10124;53.068;18.224;2022-11-15T14:41:44;137.13;;;51.07;;
19923;SDS011;10124;53.068;18.224;2022-11-15T14:44:11;116.00;;;47.83;;
19923;SDS011;10124;53.068;18.224;2022-11-15T14:46:39;127.13;;;50.33;;
19923;SDS011;10124;53.068;18.224;2022-11-15T14:49:07;139.03;;;53.20;;
19923;SDS011;10124;53.068;18.224;2022-11-15T14:51:36;131.00;;;51.20;;
19923;SDS011;10124;53.068;18.224;2022-11-15T14:54:04;139.70;;;50.30;;
19923;SDS011;10124;53.068;18.224;2022-11-15T14:56:32;138.77;;;52.50;;
19923;SDS011;10124;53.068;18.224;2022-11-15T14:59:00;126.73;;;52.07;;
19923;SDS011;10124;53.068;18.224;2022-11-15T15:01:28;130.97;;;52.37;;
19923;SDS011;10124;53.068;18.224;2022-11-15T15:03:56;150.13;;;51.67;;
19923;SDS011;10124;53.068;18.224;2022-11-15T15:06:25;131.83;;;54.83;;
19923;SDS011;10124;53.068;18.224;2022-11-15T15:08:54;172.77;;;79.10;;
19923;SDS011;10124;53.068;18.224;2022-11-15T15:11:23;164.37;;;78.77;;
19923;SDS011;10124;53.068;18.224;2022-11-15T15:13:56;136.27;;;57.37;;
19923;SDS011;10124;53.068;18.224;2022-11-15T15:16:29;146.67;;;56.43;;
19923;SDS011;10124;53.068;18.224;2022-11-15T15:18:58;135.27;;;52.90;;
19923;SDS011;10124;53.068;18.224;2022-11-15T15:21:29;121.90;;;50.27;;
19923;SDS011;10124;53.068;18.224;2022-11-15T15:24:04;138.93;;;54.03;;
19923;SDS011;10124;53.068;18.224;2022-11-15T15:26:32;149.73;;;58.83;;
19923;SDS011;10124;53.068;18.224;2022-11-15T15:29:04;165.63;;;67.53;;
19923;SDS011;10124;53.068;18.224;2022-11-15T15:31:31;137.07;;;54.27;;
19923;SDS011;10124;53.068;18.224;2022-11-15T15:34:00;156.83;;;59.73;;
19923;SDS011;10124;53.068;18.224;2022-11-15T15:36:28;299.60;;;119.97;;
19923;SDS011;10124;53.068;18.224;2022-11-15T15:38:56;183.67;;;74.00;;
19923;SDS011;10124;53.068;18.224;2022-11-15T15:41:25;170.03;;;68.67;;
19923;SDS011;10124;53.068;18.224;2022-11-15T15:43:53;142.70;;;54.40;;
19923;SDS011;10124;53.068;18.224;2022-11-15T15:46:20;123.00;;;52.53;;
19923;SDS011;10124;53.068;18.224;2022-11-15T15:48:49;140.27;;;53.07;;
19923;SDS011;10124;53.068;18.224;2022-11-15T15:51:17;130.97;;;51.10;;
19923;SDS011;10124;53.068;18.224;2022-11-15T15:53:47;160.83;;;61.43;;
19923;SDS011;10124;53.068;18.224;2022-11-15T15:56:16;178.43;;;66.20;;
19923;SDS011;10124;53.068;18.224;2022-11-15T15:58:47;150.87;;;56.80;;
19923;SDS011;10124;53.068;18.224;2022-11-15T16:01:15;195.27;;;72.50;;
19923;SDS011;10124;53.068;18.224;2022-11-15T16:03:43;160.17;;;67.60;;
19923;SDS011;10124;53.068;18.224;2022-11-15T16:06:57;221.03;;;96.77;;
19923;SDS011;10124;53.068;18.224;2022-11-15T16:09:08;250.07;;;87.57;;
19923;SDS011;10124;53.068;18.224;2022-11-15T16:11:46;207.60;;;73.90;;
19923;SDS011;10124;53.068;18.224;2022-11-15T16:14:14;164.80;;;60.00;;
19923;SDS011;10124;53.068;18.224;2022-11-15T16:16:44;154.30;;;57.53;;
19923;SDS011;10124;53.068;18.224;2022-11-15T16:19:13;166.80;;;63.27;;
19923;SDS011;10124;53.068;18.224;2022-11-15T16:21:41;140.77;;;57.77;;
19923;SDS011;10124;53.068;18.224;2022-11-15T16:24:09;150.83;;;66.87;;
19923;SDS011;10124;53.068;18.224;2022-11-15T16:26:37;171.87;;;63.37;;
19923;SDS011;10124;53.068;18.224;2022-11-15T16:29:05;167.53;;;62.47;;
19923;SDS011;10124;53.068;18.224;2022-11-15T16:31:33;149.93;;;57.27;;
19923;SDS011;10124;53.068;18.224;2022-11-15T16:34:01;163.60;;;60.50;;
19923;SDS011;10124;53.068;18.224;2022-11-15T16:36:30;176.83;;;67.13;;
19923;SDS011;10124;53.068;18.224;2022-11-15T16:38:59;185.70;;;67.47;;
19923;SDS011;10124;53.068;18.224;2022-11-15T16:41:30;147.37;;;58.13;;
19923;SDS011;10124;53.068;18.224;2022-11-15T16:43:59;161.53;;;60.40;;
19923;SDS011;10124;53.068;18.224;2022-11-15T16:46:27;147.20;;;56.70;;
19923;SDS011;10124;53.068;18.224;2022-11-15T16:48:56;249.53;;;114.10;;
19923;SDS011;10124;53.068;18.224;2022-11-15T16:51:23;481.37;;;286.53;;
19923;SDS011;10124;53.068;18.224;2022-11-15T16:53:51;234.40;;;90.53;;
19923;SDS011;10124;53.068;18.224;2022-11-15T16:58:56;163.53;;;60.67;;
19923;SDS011;10124;53.068;18.224;2022-11-15T17:01:29;212.27;;;76.53;;
19923;SDS011;10124;53.068;18.224;2022-11-15T17:04:00;181.53;;;61.17;;
19923;SDS011;10124;53.068;18.224;2022-11-15T17:06:39;171.17;;;61.97;;
19923;SDS011;10124;53.068;18.224;2022-11-15T17:09:13;312.27;;;152.23;;
19923;SDS011;10124;53.068;18.224;2022-11-15T17:11:51;211.73;;;94.83;;
19923;SDS011;10124;53.068;18.224;2022-11-15T17:14:20;436.77;;;222.50;;
19923;SDS011;10124;53.068;18.224;2022-11-15T17:16:48;342.97;;;171.90;;
19923;SDS011;10124;53.068;18.224;2022-11-15T17:19:17;385.87;;;192.60;;
19923;SDS011;10124;53.068;18.224;2022-11-15T17:21:46;277.20;;;135.47;;
19923;SDS011;10124;53.068;18.224;2022-11-15T17:24:17;196.07;;;79.53;;
19923;SDS011;10124;53.068;18.224;2022-11-15T17:26:47;324.60;;;136.00;;
19923;SDS011;10124;53.068;18.224;2022-11-15T17:29:15;677.13;;;268.47;;
19923;SDS011;10124;53.068;18.224;2022-11-15T17:31:43;260.73;;;92.63;;
19923;SDS011;10124;53.068;18.224;2022-11-15T17:34:11;428.17;;;175.13;;